sensor_id;sensor_type;location;lat;lon;timestamp;temperature;humidity
20594;DHT22;10455;48.732;10.266;2024-01-07T00:04:47;3.60;99.90
20594;DHT22;10455;48.732;10.266;2024-01-07T00:09:49;3.50;99.90
20594;DHT22;10455;48.732;10.266;2024-01-07T00:14:50;3.60;99.90
20594;DHT22;10455;48.732;10.266;2024-01-07T00:19:54;3.60;99.90
20594;DHT22;10455;48.732;10.266;2024-01-07T00:24:56;3.50;99.90
20594;DHT22;10455;48.732;10.266;2024-01-07T00:29:57;3.50;99.90
20594;DHT22;10455;48.732;10.266;2024-01-07T00:35:01;3.40;99.90
20594;DHT22;10455;48.732;10.266;2024-01-07T00:40:03;3.60;99.90
20594;DHT22;10455;48.732;10.266;2024-01-07T00:45:06;3.40;99.90
20594;DHT22;10455;48.732;10.266;2024-01-07T00:50:10;3.50;99.90
20594;DHT22;10455;48.732;10.266;2024-01-07T00:55:12;3.50;99.90
20594;DHT22;10455;48.732;10.266;2024-01-07T01:00:15;3.60;99.90
20594;DHT22;10455;48.732;10.266;2024-01-07T01:05:18;3.80;99.90
20594;DHT22;10455;48.732;10.266;2024-01-07T01:10:20;3.70;99.90
20594;DHT22;10455;48.732;10.266;2024-01-07T01:15:22;3.50;99.90
20594;DHT22;10455;48.732;10.266;2024-01-07T01:20:25;3.30;99.90
20594;DHT22;10455;48.732;10.266;2024-01-07T01:25:27;3.20;99.90
20594;DHT22;10455;48.732;10.266;2024-01-07T01:30:30;3.20;99.90
20594;DHT22;10455;48.732;10.266;2024-01-07T01:35:34;3.00;99.90
20594;DHT22;10455;48.732;10.266;2024-01-07T01:40:35;3.10;99.90
20594;DHT22;10455;48.732;10.266;2024-01-07T01:45:37;3.00;99.90
20594;DHT22;10455;48.732;10.266;2024-01-07T01:50:41;2.60;99.90
20594;DHT22;10455;48.732;10.266;2024-01-07T01:55:43;2.60;99.90
20594;DHT22;10455;48.732;10.266;2024-01-07T02:00:45;2.70;99.90
20594;DHT22;10455;48.732;10.266;2024-01-07T02:05:49;2.70;99.90
20594;DHT22;10455;48.732;10.266;2024-01-07T02:10:51;2.70;99.90
20594;DHT22;10455;48.732;10.266;2024-01-07T02:15:53;2.60;99.90
20594;DHT22;10455;48.732;10.266;2024-01-07T02:20:56;2.40;99.90
20594;DHT22;10455;48.732;10.266;2024-01-07T02:25:59;2.70;99.90
20594;DHT22;10455;48.732;10.266;2024-01-07T02:31:01;2.50;99.90
20594;DHT22;10455;48.732;10.266;2024-01-07T02:36:04;2.50;99.90
20594;DHT22;10455;48.732;10.266;2024-01-07T02:41:07;2.50;99.90
20594;DHT22;10455;48.732;10.266;2024-01-07T02:46:09;2.70;99.90
20594;DHT22;10455;48.732;10.266;2024-01-07T02:51:11;2.90;99.90
20594;DHT22;10455;48.732;10.266;2024-01-07T02:56:14;2.80;99.90
20594;DHT22;10455;48.732;10.266;2024-01-07T03:01:16;2.80;99.90
20594;DHT22;10455;48.732;10.266;2024-01-07T03:06:18;2.60;99.90
20594;DHT22;10455;48.732;10.266;2024-01-07T03:11:21;2.50;99.90
20594;DHT22;10455;48.732;10.266;2024-01-07T03:16:23;2.60;99.90
20594;DHT22;10455;48.732;10.266;2024-01-07T03:21:25;2.60;99.90
20594;DHT22;10455;48.732;10.266;2024-01-07T03:26:30;2.30;99.90
20594;DHT22;10455;48.732;10.266;2024-01-07T03:31:33;2.40;99.90
20594;DHT22;10455;48.732;10.266;2024-01-07T03:36:35;2.40;99.90
20594;DHT22;10455;48.732;10.266;2024-01-07T03:41:38;2.50;99.90
20594;DHT22;10455;48.732;10.266;2024-01-07T03:46:40;2.70;99.90
20594;DHT22;10455;48.732;10.266;2024-01-07T03:51:42;2.90;99.90
20594;DHT22;10455;48.732;10.266;2024-01-07T03:56:45;2.70;99.90
20594;DHT22;10455;48.732;10.266;2024-01-07T04:01:47;2.80;99.90
20594;DHT22;10455;48.732;10.266;2024-01-07T04:06:49;2.80;99.90
20594;DHT22;10455;48.732;10.266;2024-01-07T04:11:52;2.90;99.90
20594;DHT22;10455;48.732;10.266;2024-01-07T04:16:54;2.70;99.90
20594;DHT22;10455;48.732;10.266;2024-01-07T04:21:56;2.60;99.90
20594;DHT22;10455;48.732;10.266;2024-01-07T04:26:59;2.70;99.90
20594;DHT22;10455;48.732;10.266;2024-01-07T04:32:01;2.90;99.90
20594;DHT22;10455;48.732;10.266;2024-01-07T04:37:03;2.80;99.90
20594;DHT22;10455;48.732;10.266;2024-01-07T04:42:07;2.60;99.90
20594;DHT22;10455;48.732;10.266;2024-01-07T04:47:25;2.40;99.90
20594;DHT22;10455;48.732;10.266;2024-01-07T04:52:28;2.40;99.90
20594;DHT22;10455;48.732;10.266;2024-01-07T04:57:31;2.40;99.90
20594;DHT22;10455;48.732;10.266;2024-01-07T05:02:33;2.30;99.90
20594;DHT22;10455;48.732;10.266;2024-01-07T05:07:35;2.30;99.90
20594;DHT22;10455;48.732;10.266;2024-01-07T05:12:38;2.20;99.90
20594;DHT22;10455;48.732;10.266;2024-01-07T05:17:40;2.30;99.90
20594;DHT22;10455;48.732;10.266;2024-01-07T05:22:42;2.30;99.90
20594;DHT22;10455;48.732;10.266;2024-01-07T05:27:45;2.10;99.90
20594;DHT22;10455;48.732;10.266;2024-01-07T05:32:47;2.10;99.90
20594;DHT22;10455;48.732;10.266;2024-01-07T05:37:49;2.10;99.90
20594;DHT22;10455;48.732;10.266;2024-01-07T05:42:52;2.30;99.90
20594;DHT22;10455;48.732;10.266;2024-01-07T05:47:54;2.30;99.90
20594;DHT22;10455;48.732;10.266;2024-01-07T05:52:56;2.20;99.90
20594;DHT22;10455;48.732;10.266;2024-01-07T05:57:59;2.20;99.90
20594;DHT22;10455;48.732;10.266;2024-01-07T06:03:01;1.80;99.90
20594;DHT22;10455;48.732;10.266;2024-01-07T06:08:04;1.90;99.90
20594;DHT22;10455;48.732;10.266;2024-01-07T06:13:07;1.80;99.90
20594;DHT22;10455;48.732;10.266;2024-01-07T06:18:09;1.70;99.90
20594;DHT22;10455;48.732;10.266;2024-01-07T06:23:11;1.70;99.90
20594;DHT22;10455;48.732;10.266;2024-01-07T06:28:14;1.80;99.90
20594;DHT22;10455;48.732;10.266;2024-01-07T06:33:16;1.90;99.90
20594;DHT22;10455;48.732;10.266;2024-01-07T06:38:18;1.90;99.90
20594;DHT22;10455;48.732;10.266;2024-01-07T06:43:21;1.80;99.90
20594;DHT22;10455;48.732;10.266;2024-01-07T06:48:23;1.80;99.90
20594;DHT22;10455;48.732;10.266;2024-01-07T06:53:25;1.90;99.90
20594;DHT22;10455;48.732;10.266;2024-01-07T06:58:28;1.90;99.90
20594;DHT22;10455;48.732;10.266;2024-01-07T07:03:30;1.50;99.90
20594;DHT22;10455;48.732;10.266;2024-01-07T07:08:32;1.30;99.90
20594;DHT22;10455;48.732;10.266;2024-01-07T07:13:35;1.20;99.90
20594;DHT22;10455;48.732;10.266;2024-01-07T07:18:38;1.30;99.90
20594;DHT22;10455;48.732;10.266;2024-01-07T07:23:40;1.20;99.90
20594;DHT22;10455;48.732;10.266;2024-01-07T07:28:43;1.20;99.90
20594;DHT22;10455;48.732;10.266;2024-01-07T07:33:45;1.10;99.90
20594;DHT22;10455;48.732;10.266;2024-01-07T07:38:47;0.90;99.90
20594;DHT22;10455;48.732;10.266;2024-01-07T07:43:50;0.90;99.90
20594;DHT22;10455;48.732;10.266;2024-01-07T07:48:52;1.20;99.90
20594;DHT22;10455;48.732;10.266;2024-01-07T07:53:54;1.00;99.90
20594;DHT22;10455;48.732;10.266;2024-01-07T07:58:58;1.00;99.90
20594;DHT22;10455;48.732;10.266;2024-01-07T08:03:59;0.90;99.90
20594;DHT22;10455;48.732;10.266;2024-01-07T08:09:03;0.80;99.90
20594;DHT22;10455;48.732;10.266;2024-01-07T08:14:06;0.90;99.90
20594;DHT22;10455;48.732;10.266;2024-01-07T08:19:09;0.90;99.90
20594;DHT22;10455;48.732;10.266;2024-01-07T08:24:11;0.80;99.90
20594;DHT22;10455;48.732;10.266;2024-01-07T08:29:15;0.90;99.90
20594;DHT22;10455;48.732;10.266;2024-01-07T08:34:16;0.80;99.90
20594;DHT22;10455;48.732;10.266;2024-01-07T08:39:18;1.00;99.90
20594;DHT22;10455;48.732;10.266;2024-01-07T08:44:21;1.10;99.90
20594;DHT22;10455;48.732;10.266;2024-01-07T08:49:24;1.00;99.90
20594;DHT22;10455;48.732;10.266;2024-01-07T08:54:25;0.70;99.90
20594;DHT22;10455;48.732;10.266;2024-01-07T08:59:29;0.60;99.90
20594;DHT22;10455;48.732;10.266;2024-01-07T09:04:31;0.50;99.90
20594;DHT22;10455;48.732;10.266;2024-01-07T09:09:34;0.40;99.90
20594;DHT22;10455;48.732;10.266;2024-01-07T09:14:38;0.50;99.90
20594;DHT22;10455;48.732;10.266;2024-01-07T09:19:40;0.40;99.90
20594;DHT22;10455;48.732;10.266;2024-01-07T09:24:42;0.30;99.90
20594;DHT22;10455;48.732;10.266;2024-01-07T09:29:45;0.30;99.90
20594;DHT22;10455;48.732;10.266;2024-01-07T09:34:47;0.40;99.90
20594;DHT22;10455;48.732;10.266;2024-01-07T09:39:49;0.40;99.90
20594;DHT22;10455;48.732;10.266;2024-01-07T09:44:52;0.30;99.90
20594;DHT22;10455;48.732;10.266;2024-01-07T09:49:55;0.30;99.90
20594;DHT22;10455;48.732;10.266;2024-01-07T09:55:01;0.60;99.90
20594;DHT22;10455;48.732;10.266;2024-01-07T10:00:07;0.60;99.90
20594;DHT22;10455;48.732;10.266;2024-01-07T10:05:09;0.70;99.90
20594;DHT22;10455;48.732;10.266;2024-01-07T10:10:13;0.70;99.90
20594;DHT22;10455;48.732;10.266;2024-01-07T10:15:17;0.60;99.90
20594;DHT22;10455;48.732;10.266;2024-01-07T10:20:19;0.50;99.90
20594;DHT22;10455;48.732;10.266;2024-01-07T10:25:21;0.60;99.90
20594;DHT22;10455;48.732;10.266;2024-01-07T10:30:24;0.40;99.90
20594;DHT22;10455;48.732;10.266;2024-01-07T10:35:29;0.40;99.90
20594;DHT22;10455;48.732;10.266;2024-01-07T10:40:31;0.70;99.90
20594;DHT22;10455;48.732;10.266;2024-01-07T10:45:36;0.50;99.90
20594;DHT22;10455;48.732;10.266;2024-01-07T10:50:38;0.40;99.90
20594;DHT22;10455;48.732;10.266;2024-01-07T10:55:46;0.40;99.90
20594;DHT22;10455;48.732;10.266;2024-01-07T11:00:53;0.30;99.90
20594;DHT22;10455;48.732;10.266;2024-01-07T11:05:59;0.40;99.90
20594;DHT22;10455;48.732;10.266;2024-01-07T11:11:05;0.50;99.90
20594;DHT22;10455;48.732;10.266;2024-01-07T11:16:09;0.80;99.90
20594;DHT22;10455;48.732;10.266;2024-01-07T11:21:20;0.80;99.90
20594;DHT22;10455;48.732;10.266;2024-01-07T11:26:28;0.80;99.90
20594;DHT22;10455;48.732;10.266;2024-01-07T11:31:45;0.60;99.90
20594;DHT22;10455;48.732;10.266;2024-01-07T11:36:48;0.20;99.90
20594;DHT22;10455;48.732;10.266;2024-01-07T11:41:49;0.20;99.90
20594;DHT22;10455;48.732;10.266;2024-01-07T11:46:53;0.20;99.90
20594;DHT22;10455;48.732;10.266;2024-01-07T11:51:55;0.10;99.90
20594;DHT22;10455;48.732;10.266;2024-01-07T11:56:56;0.10;99.90
20594;DHT22;10455;48.732;10.266;2024-01-07T12:02:01;0.00;99.90
20594;DHT22;10455;48.732;10.266;2024-01-07T12:07:04;-0.20;99.90
20594;DHT22;10455;48.732;10.266;2024-01-07T12:12:06;-0.20;99.90
20594;DHT22;10455;48.732;10.266;2024-01-07T12:17:10;-0.20;99.90
20594;DHT22;10455;48.732;10.266;2024-01-07T12:22:12;-0.30;99.90
20594;DHT22;10455;48.732;10.266;2024-01-07T12:27:14;-0.30;99.90
20594;DHT22;10455;48.732;10.266;2024-01-07T12:32:18;-0.20;99.90
20594;DHT22;10455;48.732;10.266;2024-01-07T12:37:20;-0.30;99.90
20594;DHT22;10455;48.732;10.266;2024-01-07T12:42:21;-0.30;99.90
20594;DHT22;10455;48.732;10.266;2024-01-07T12:47:25;-0.30;99.90
20594;DHT22;10455;48.732;10.266;2024-01-07T12:52:27;-0.10;99.90
20594;DHT22;10455;48.732;10.266;2024-01-07T12:57:29;-0.10;99.90
20594;DHT22;10455;48.732;10.266;2024-01-07T13:02:34;-0.20;99.90
20594;DHT22;10455;48.732;10.266;2024-01-07T13:07:36;-0.50;99.90
20594;DHT22;10455;48.732;10.266;2024-01-07T13:12:38;-0.20;99.90
20594;DHT22;10455;48.732;10.266;2024-01-07T13:17:42;-0.20;99.90
20594;DHT22;10455;48.732;10.266;2024-01-07T13:22:44;-0.50;99.90
20594;DHT22;10455;48.732;10.266;2024-01-07T13:27:46;-0.40;99.90
20594;DHT22;10455;48.732;10.266;2024-01-07T13:32:50;-0.40;99.90
20594;DHT22;10455;48.732;10.266;2024-01-07T13:37:54;-0.40;99.90
20594;DHT22;10455;48.732;10.266;2024-01-07T13:42:56;0.00;99.90
20594;DHT22;10455;48.732;10.266;2024-01-07T13:47:59;-0.10;99.90
20594;DHT22;10455;48.732;10.266;2024-01-07T13:53:01;-0.20;99.90
20594;DHT22;10455;48.732;10.266;2024-01-07T13:58:03;-0.40;99.90
20594;DHT22;10455;48.732;10.266;2024-01-07T14:03:06;-0.80;99.90
20594;DHT22;10455;48.732;10.266;2024-01-07T14:08:08;-0.60;99.90
20594;DHT22;10455;48.732;10.266;2024-01-07T14:13:10;-0.60;99.90
20594;DHT22;10455;48.732;10.266;2024-01-07T14:18:13;-0.80;99.90
20594;DHT22;10455;48.732;10.266;2024-01-07T14:23:18;-0.90;99.90
20594;DHT22;10455;48.732;10.266;2024-01-07T14:28:20;-1.00;99.90
20594;DHT22;10455;48.732;10.266;2024-01-07T14:33:23;-0.90;99.90
20594;DHT22;10455;48.732;10.266;2024-01-07T14:38:25;-0.20;99.90
20594;DHT22;10455;48.732;10.266;2024-01-07T14:43:27;-0.80;99.90
20594;DHT22;10455;48.732;10.266;2024-01-07T14:48:31;-1.30;99.90
20594;DHT22;10455;48.732;10.266;2024-01-07T14:53:32;-1.10;99.90
20594;DHT22;10455;48.732;10.266;2024-01-07T14:58:34;-0.90;99.90
20594;DHT22;10455;48.732;10.266;2024-01-07T15:03:38;-0.90;99.90
20594;DHT22;10455;48.732;10.266;2024-01-07T15:08:40;-0.80;99.90
20594;DHT22;10455;48.732;10.266;2024-01-07T15:13:42;-0.60;99.90
20594;DHT22;10455;48.732;10.266;2024-01-07T15:18:46;-0.90;99.90
20594;DHT22;10455;48.732;10.266;2024-01-07T15:23:47;-1.20;99.90
20594;DHT22;10455;48.732;10.266;2024-01-07T15:28:49;-1.40;99.90
20594;DHT22;10455;48.732;10.266;2024-01-07T15:33:54;-1.40;99.90
20594;DHT22;10455;48.732;10.266;2024-01-07T15:38:56;-1.30;99.90
20594;DHT22;10455;48.732;10.266;2024-01-07T15:43:58;-1.20;99.90
20594;DHT22;10455;48.732;10.266;2024-01-07T15:49:01;-0.80;99.90
20594;DHT22;10455;48.732;10.266;2024-01-07T15:54:03;-1.00;99.90
20594;DHT22;10455;48.732;10.266;2024-01-07T15:59:06;-1.30;99.90
20594;DHT22;10455;48.732;10.266;2024-01-07T16:04:10;-1.30;99.90
20594;DHT22;10455;48.732;10.266;2024-01-07T16:09:12;-1.20;99.90
20594;DHT22;10455;48.732;10.266;2024-01-07T16:14:14;-1.50;99.90
20594;DHT22;10455;48.732;10.266;2024-01-07T16:19:18;-1.50;99.90
20594;DHT22;10455;48.732;10.266;2024-01-07T16:24:20;-1.70;99.90
20594;DHT22;10455;48.732;10.266;2024-01-07T16:29:22;-1.80;99.90
20594;DHT22;10455;48.732;10.266;2024-01-07T16:34:25;-1.70;99.90
20594;DHT22;10455;48.732;10.266;2024-01-07T16:39:27;-1.60;99.90
20594;DHT22;10455;48.732;10.266;2024-01-07T16:44:28;-1.50;99.90
20594;DHT22;10455;48.732;10.266;2024-01-07T16:49:32;-1.40;99.90
20594;DHT22;10455;48.732;10.266;2024-01-07T16:54:34;-1.60;99.90
20594;DHT22;10455;48.732;10.266;2024-01-07T16:59:36;-1.80;99.90
20594;DHT22;10455;48.732;10.266;2024-01-07T17:04:39;-1.90;99.90
20594;DHT22;10455;48.732;10.266;2024-01-07T17:09:41;-2.00;99.90
20594;DHT22;10455;48.732;10.266;2024-01-07T17:14:45;-1.90;99.90
20594;DHT22;10455;48.732;10.266;2024-01-07T17:19:50;-2.00;99.90
20594;DHT22;10455;48.732;10.266;2024-01-07T17:24:54;-1.80;99.90
20594;DHT22;10455;48.732;10.266;2024-01-07T17:29:56;-1.80;99.90
20594;DHT22;10455;48.732;10.266;2024-01-07T17:34:59;-1.90;99.90
20594;DHT22;10455;48.732;10.266;2024-01-07T17:40:01;-1.90;99.90
20594;DHT22;10455;48.732;10.266;2024-01-07T17:45:03;-2.10;99.90
20594;DHT22;10455;48.732;10.266;2024-01-07T17:50:10;-2.10;99.90
20594;DHT22;10455;48.732;10.266;2024-01-07T17:55:13;-2.10;99.90
20594;DHT22;10455;48.732;10.266;2024-01-07T18:00:16;-2.30;99.90
20594;DHT22;10455;48.732;10.266;2024-01-07T18:05:22;-2.40;99.90
20594;DHT22;10455;48.732;10.266;2024-01-07T18:10:24;-2.30;99.90
20594;DHT22;10455;48.732;10.266;2024-01-07T18:15:28;-2.20;99.90
20594;DHT22;10455;48.732;10.266;2024-01-07T18:20:32;-2.20;99.90
20594;DHT22;10455;48.732;10.266;2024-01-07T18:25:34;-2.40;99.90
20594;DHT22;10455;48.732;10.266;2024-01-07T18:30:36;-2.40;99.90
20594;DHT22;10455;48.732;10.266;2024-01-07T18:35:42;-2.30;99.90
20594;DHT22;10455;48.732;10.266;2024-01-07T18:40:47;-2.30;99.90
20594;DHT22;10455;48.732;10.266;2024-01-07T18:45:53;-2.10;99.90
20594;DHT22;10455;48.732;10.266;2024-01-07T18:50:57;-2.30;99.90
20594;DHT22;10455;48.732;10.266;2024-01-07T19:01:02;-2.70;99.90
20594;DHT22;10455;48.732;10.266;2024-01-07T19:06:06;-2.80;99.90
20594;DHT22;10455;48.732;10.266;2024-01-07T19:11:09;-2.50;99.90
20594;DHT22;10455;48.732;10.266;2024-01-07T19:16:11;-2.70;99.90
20594;DHT22;10455;48.732;10.266;2024-01-07T19:21:15;-2.80;99.90
20594;DHT22;10455;48.732;10.266;2024-01-07T19:26:18;-2.90;99.90
20594;DHT22;10455;48.732;10.266;2024-01-07T19:31:21;-2.90;99.90
20594;DHT22;10455;48.732;10.266;2024-01-07T19:36:25;-2.90;99.90
20594;DHT22;10455;48.732;10.266;2024-01-07T19:41:29;-2.90;99.90
20594;DHT22;10455;48.732;10.266;2024-01-07T19:46:35;-2.90;99.90
20594;DHT22;10455;48.732;10.266;2024-01-07T19:51:39;-2.90;99.90
20594;DHT22;10455;48.732;10.266;2024-01-07T19:56:41;-3.20;99.90
20594;DHT22;10455;48.732;10.266;2024-01-07T20:01:43;-3.30;99.90
20594;DHT22;10455;48.732;10.266;2024-01-07T20:06:47;-3.30;99.90
20594;DHT22;10455;48.732;10.266;2024-01-07T20:11:49;-3.30;99.90
20594;DHT22;10455;48.732;10.266;2024-01-07T20:16:51;-3.40;99.90
20594;DHT22;10455;48.732;10.266;2024-01-07T20:21:55;-3.30;99.90
20594;DHT22;10455;48.732;10.266;2024-01-07T20:26:57;-3.40;99.90
20594;DHT22;10455;48.732;10.266;2024-01-07T20:31:59;-3.40;99.90
20594;DHT22;10455;48.732;10.266;2024-01-07T20:37:03;-3.70;99.90
20594;DHT22;10455;48.732;10.266;2024-01-07T20:42:05;-3.60;99.90
20594;DHT22;10455;48.732;10.266;2024-01-07T20:47:07;-3.60;99.90
20594;DHT22;10455;48.732;10.266;2024-01-07T20:52:11;-3.60;99.90
20594;DHT22;10455;48.732;10.266;2024-01-07T20:57:16;-3.70;99.90
20594;DHT22;10455;48.732;10.266;2024-01-07T21:02:18;-3.60;99.90
20594;DHT22;10455;48.732;10.266;2024-01-07T21:07:21;-3.60;99.90
20594;DHT22;10455;48.732;10.266;2024-01-07T21:12:25;-3.50;99.90
20594;DHT22;10455;48.732;10.266;2024-01-07T21:17:27;-3.50;99.90
20594;DHT22;10455;48.732;10.266;2024-01-07T21:22:31;-3.80;99.90
20594;DHT22;10455;48.732;10.266;2024-01-07T21:27:34;-4.00;99.90
20594;DHT22;10455;48.732;10.266;2024-01-07T21:32:36;-4.20;99.90
20594;DHT22;10455;48.732;10.266;2024-01-07T21:37:39;-4.30;99.90
20594;DHT22;10455;48.732;10.266;2024-01-07T21:42:42;-4.20;99.90
20594;DHT22;10455;48.732;10.266;2024-01-07T21:47:44;-4.30;99.90
20594;DHT22;10455;48.732;10.266;2024-01-07T21:52:55;-4.10;99.90
20594;DHT22;10455;48.732;10.266;2024-01-07T21:57:57;-4.20;99.90
20594;DHT22;10455;48.732;10.266;2024-01-07T22:02:59;-4.10;99.90
20594;DHT22;10455;48.732;10.266;2024-01-07T22:08:03;-4.20;99.90
20594;DHT22;10455;48.732;10.266;2024-01-07T22:13:05;-4.30;99.90
20594;DHT22;10455;48.732;10.266;2024-01-07T22:18:07;-4.40;99.90
20594;DHT22;10455;48.732;10.266;2024-01-07T22:23:11;-4.40;99.90
20594;DHT22;10455;48.732;10.266;2024-01-07T22:28:13;-4.20;99.90
20594;DHT22;10455;48.732;10.266;2024-01-07T22:33:15;-4.10;99.90
20594;DHT22;10455;48.732;10.266;2024-01-07T22:38:18;-4.30;99.90
20594;DHT22;10455;48.732;10.266;2024-01-07T22:43:21;-4.20;99.90
20594;DHT22;10455;48.732;10.266;2024-01-07T22:48:23;-4.20;99.90
20594;DHT22;10455;48.732;10.266;2024-01-07T22:53:26;-4.20;99.90
20594;DHT22;10455;48.732;10.266;2024-01-07T22:58:28;-4.10;99.90
20594;DHT22;10455;48.732;10.266;2024-01-07T23:03:30;-4.20;99.90
20594;DHT22;10455;48.732;10.266;2024-01-07T23:08:34;-4.40;99.90
20594;DHT22;10455;48.732;10.266;2024-01-07T23:13:36;-4.20;99.90
20594;DHT22;10455;48.732;10.266;2024-01-07T23:18:38;-4.10;99.90
20594;DHT22;10455;48.732;10.266;2024-01-07T23:23:41;-4.10;99.90
20594;DHT22;10455;48.732;10.266;2024-01-07T23:28:43;-4.10;99.90
20594;DHT22;10455;48.732;10.266;2024-01-07T23:33:45;-4.30;99.90
20594;DHT22;10455;48.732;10.266;2024-01-07T23:38:49;-4.40;99.90
20594;DHT22;10455;48.732;10.266;2024-01-07T23:43:51;-4.30;99.90
20594;DHT22;10455;48.732;10.266;2024-01-07T23:48:53;-4.30;99.90
20594;DHT22;10455;48.732;10.266;2024-01-07T23:53:56;-4.30;99.90
20594;DHT22;10455;48.732;10.266;2024-01-07T23:58:58;-4.30;99.90
